Airfield :
LOGIN :

Register | Disclaimer

   EN    FR    IT 

 










Legend :    VFR   Marginal VFR   IFR   Intensive IFR   Very Intensive IFR
Visi :
Ceiling :
>= 8 km
>= 3000ft
5 to 8 km
1000 to 3000 ft
1500m to 5 km
500 to 1000 ft
800 to 1500m
200 to 500 ft
< 800m
< 200 ft
Symbols :   Thunderstorms  Fog  Heavy snow  Heavy precipitations  Wind > 20 kt
SIGMETs :     Misc.  Thunderstorms  Icing  Turbulence  Mountain Waves  Volcanic Ashes







- Airport Elevation : 1260 ft
- IATA code : LDE
- Download approach charts


LFBT - Tarbes / Ossun

CURRENT METAR :
  • 182300Z AUTO 02002KT 6000 OVC022 06/05 Q1024 TEMPO 3000 BR BECMG BKN013

EXPIRED METARs :
  • 182230Z AUTO VRB01KT 6000 OVC022 07/05 Q1024 TEMPO 3000 BR BECMG BKN013
  • 182200Z AUTO 34002KT 9000 OVC021 07/06 Q1024 TEMPO 3000 BR BKN005
  • 182130Z AUTO 19001KT 9999 OVC020 07/06 Q1024 TEMPO 3000 BR BKN005
  • 182100Z AUTO 00000KT 8000 OVC019 07/06 Q1024 TEMPO 3000 BR BKN005
  • 182030Z AUTO 00000KT 8000 OVC017 06/06 Q1024 TEMPO 3000 BR BKN005

TAF AMD TAF LFBT
Valid from the 18 at 19:00 until the 19 at 18:00 UTC


181912Z 1819/1918 VRB02KT 7000 BKN013
TEMPO 1820/1903 3000 BR
PROB30 1820/1824 BKN005
BECMG 1910/1912 02005KT
No reported NOTAMs for that airfield.



MET'MAP, your aeronautical weather chart ! - Copyright ORBIFLY December 2007 - Disclaimer

ORBIFLY MET'MAP TEAM :

Programming & Development : Alexandra Zaïnal
Concept & Development : Baudouin d'Aumeries
Co-Development & Prog : Marc-Olivier Méhu
Technical & hardware support : Manuel Goepfert

Contact : metmap@orbifly.com




SOURCES & CREDITS :

   NOAA